sensor_id;sensor_type;location;lat;lon;timestamp;P1;durP1;ratioP1;P2;durP2;ratioP2
43807;SDS011;29438;50.664;10.098;2023-02-28T00:00:15;3.28;;;1.35;;
43807;SDS011;29438;50.664;10.098;2023-02-28T00:02:42;4.13;;;1.83;;
43807;SDS011;29438;50.664;10.098;2023-02-28T00:05:09;4.47;;;1.80;;
43807;SDS011;29438;50.664;10.098;2023-02-28T00:07:37;3.25;;;1.65;;
43807;SDS011;29438;50.664;10.098;2023-02-28T00:10:03;3.83;;;1.60;;
43807;SDS011;29438;50.664;10.098;2023-02-28T00:12:31;4.82;;;1.67;;
43807;SDS011;29438;50.664;10.098;2023-02-28T00:14:57;3.92;;;1.65;;
43807;SDS011;29438;50.664;10.098;2023-02-28T00:17:22;3.58;;;1.70;;
43807;SDS011;29438;50.664;10.098;2023-02-28T00:19:48;5.75;;;1.77;;
43807;SDS011;29438;50.664;10.098;2023-02-28T00:22:15;2.90;;;1.55;;
43807;SDS011;29438;50.664;10.098;2023-02-28T00:24:45;3.33;;;1.45;;
43807;SDS011;29438;50.664;10.098;2023-02-28T00:27:11;3.75;;;1.50;;
43807;SDS011;29438;50.664;10.098;2023-02-28T00:29:38;5.05;;;1.60;;
43807;SDS011;29438;50.664;10.098;2023-02-28T00:32:04;3.08;;;1.42;;
43807;SDS011;29438;50.664;10.098;2023-02-28T00:34:30;2.90;;;1.50;;
43807;SDS011;29438;50.664;10.098;2023-02-28T00:37:02;2.53;;;1.10;;
43807;SDS011;29438;50.664;10.098;2023-02-28T00:39:32;3.22;;;1.25;;
43807;SDS011;29438;50.664;10.098;2023-02-28T00:41:59;4.22;;;1.30;;
43807;SDS011;29438;50.664;10.098;2023-02-28T00:44:25;2.63;;;1.13;;
43807;SDS011;29438;50.664;10.098;2023-02-28T00:46:50;6.30;;;1.48;;
43807;SDS011;29438;50.664;10.098;2023-02-28T00:49:16;2.95;;;1.30;;
43807;SDS011;29438;50.664;10.098;2023-02-28T00:51:42;2.83;;;1.50;;
43807;SDS011;29438;50.664;10.098;2023-02-28T00:54:08;2.95;;;1.20;;
43807;SDS011;29438;50.664;10.098;2023-02-28T00:56:33;5.25;;;1.42;;
43807;SDS011;29438;50.664;10.098;2023-02-28T00:58:59;2.92;;;1.23;;
43807;SDS011;29438;50.664;10.098;2023-02-28T01:01:24;2.80;;;1.17;;
43807;SDS011;29438;50.664;10.098;2023-02-28T01:03:50;2.17;;;1.08;;
43807;SDS011;29438;50.664;10.098;2023-02-28T01:06:15;2.67;;;1.10;;
43807;SDS011;29438;50.664;10.098;2023-02-28T01:08:41;3.67;;;1.17;;
43807;SDS011;29438;50.664;10.098;2023-02-28T01:11:07;2.88;;;1.10;;
43807;SDS011;29438;50.664;10.098;2023-02-28T01:13:34;2.65;;;1.00;;
43807;SDS011;29438;50.664;10.098;2023-02-28T01:16:00;3.97;;;1.08;;
43807;SDS011;29438;50.664;10.098;2023-02-28T01:18:25;2.13;;;1.15;;
43807;SDS011;29438;50.664;10.098;2023-02-28T01:20:51;6.90;;;1.20;;
43807;SDS011;29438;50.664;10.098;2023-02-28T01:23:18;4.05;;;0.95;;
43807;SDS011;29438;50.664;10.098;2023-02-28T01:25:45;4.25;;;1.35;;
43807;SDS011;29438;50.664;10.098;2023-02-28T01:28:10;2.10;;;0.95;;
43807;SDS011;29438;50.664;10.098;2023-02-28T01:30:36;3.08;;;1.20;;
43807;SDS011;29438;50.664;10.098;2023-02-28T01:33:01;2.97;;;1.38;;
43807;SDS011;29438;50.664;10.098;2023-02-28T01:35:27;2.63;;;1.20;;
43807;SDS011;29438;50.664;10.098;2023-02-28T01:37:53;3.05;;;1.33;;
43807;SDS011;29438;50.664;10.098;2023-02-28T01:40:18;2.75;;;1.13;;
43807;SDS011;29438;50.664;10.098;2023-02-28T01:42:44;2.53;;;1.17;;
43807;SDS011;29438;50.664;10.098;2023-02-28T01:48:02;3.70;;;1.27;;
43807;SDS011;29438;50.664;10.098;2023-02-28T01:50:34;3.05;;;1.17;;
43807;SDS011;29438;50.664;10.098;2023-02-28T01:53:04;3.65;;;1.40;;
43807;SDS011;29438;50.664;10.098;2023-02-28T01:55:33;2.15;;;1.00;;
43807;SDS011;29438;50.664;10.098;2023-02-28T01:58:02;4.05;;;1.02;;
43807;SDS011;29438;50.664;10.098;2023-02-28T02:00:30;3.22;;;1.30;;
43807;SDS011;29438;50.664;10.098;2023-02-28T02:02:57;4.32;;;1.42;;
43807;SDS011;29438;50.664;10.098;2023-02-28T02:05:27;4.13;;;1.30;;
43807;SDS011;29438;50.664;10.098;2023-02-28T02:07:57;2.58;;;1.25;;
43807;SDS011;29438;50.664;10.098;2023-02-28T02:10:29;2.20;;;1.23;;
43807;SDS011;29438;50.664;10.098;2023-02-28T02:19:20;2.22;;;1.13;;
43807;SDS011;29438;50.664;10.098;2023-02-28T02:22:02;3.67;;;1.50;;
43807;SDS011;29438;50.664;10.098;2023-02-28T02:39:00;4.40;;;1.30;;
43807;SDS011;29438;50.664;10.098;2023-02-28T02:44:24;2.88;;;1.55;;
43807;SDS011;29438;50.664;10.098;2023-02-28T02:46:52;4.30;;;1.77;;
43807;SDS011;29438;50.664;10.098;2023-02-28T02:49:24;3.75;;;1.38;;
43807;SDS011;29438;50.664;10.098;2023-02-28T02:51:55;4.13;;;1.52;;
43807;SDS011;29438;50.664;10.098;2023-02-28T02:54:23;3.80;;;1.60;;
43807;SDS011;29438;50.664;10.098;2023-02-28T02:56:53;3.17;;;1.58;;
43807;SDS011;29438;50.664;10.098;2023-02-28T02:59:22;6.28;;;1.65;;
43807;SDS011;29438;50.664;10.098;2023-02-28T03:01:50;4.80;;;1.52;;
43807;SDS011;29438;50.664;10.098;2023-02-28T03:04:21;4.32;;;1.95;;
43807;SDS011;29438;50.664;10.098;2023-02-28T03:06:50;4.82;;;1.67;;
43807;SDS011;29438;50.664;10.098;2023-02-28T03:09:20;5.15;;;1.58;;
43807;SDS011;29438;50.664;10.098;2023-02-28T03:11:46;4.45;;;1.77;;
43807;SDS011;29438;50.664;10.098;2023-02-28T03:22:40;3.60;;;1.40;;
43807;SDS011;29438;50.664;10.098;2023-02-28T03:25:24;4.13;;;1.45;;
43807;SDS011;29438;50.664;10.098;2023-02-28T03:28:27;4.68;;;1.90;;
43807;SDS011;29438;50.664;10.098;2023-02-28T03:33:55;4.40;;;1.95;;
43807;SDS011;29438;50.664;10.098;2023-02-28T03:36:29;5.05;;;1.65;;
43807;SDS011;29438;50.664;10.098;2023-02-28T03:38:59;4.47;;;1.90;;
43807;SDS011;29438;50.664;10.098;2023-02-28T03:42:14;5.15;;;2.03;;
43807;SDS011;29438;50.664;10.098;2023-02-28T03:44:18;4.68;;;1.85;;
43807;SDS011;29438;50.664;10.098;2023-02-28T03:46:53;5.93;;;2.22;;
43807;SDS011;29438;50.664;10.098;2023-02-28T03:49:26;3.25;;;1.70;;
43807;SDS011;29438;50.664;10.098;2023-02-28T03:51:56;4.68;;;1.90;;
43807;SDS011;29438;50.664;10.098;2023-02-28T03:54:31;4.10;;;1.38;;
43807;SDS011;29438;50.664;10.098;2023-02-28T03:57:10;4.05;;;1.88;;
43807;SDS011;29438;50.664;10.098;2023-02-28T03:59:59;5.47;;;1.90;;
43807;SDS011;29438;50.664;10.098;2023-02-28T04:02:42;5.82;;;2.20;;
43807;SDS011;29438;50.664;10.098;2023-02-28T04:05:08;5.03;;;2.08;;
43807;SDS011;29438;50.664;10.098;2023-02-28T04:07:33;5.20;;;2.15;;
43807;SDS011;29438;50.664;10.098;2023-02-28T04:09:59;4.47;;;1.65;;
43807;SDS011;29438;50.664;10.098;2023-02-28T04:12:25;4.57;;;1.83;;
43807;SDS011;29438;50.664;10.098;2023-02-28T04:14:50;4.30;;;1.88;;
43807;SDS011;29438;50.664;10.098;2023-02-28T04:17:16;5.45;;;2.17;;
43807;SDS011;29438;50.664;10.098;2023-02-28T04:19:43;5.60;;;2.20;;
43807;SDS011;29438;50.664;10.098;2023-02-28T04:22:09;8.48;;;2.92;;
43807;SDS011;29438;50.664;10.098;2023-02-28T04:24:35;6.38;;;2.88;;
43807;SDS011;29438;50.664;10.098;2023-02-28T04:27:01;7.50;;;2.78;;
43807;SDS011;29438;50.664;10.098;2023-02-28T04:29:27;7.70;;;3.03;;
43807;SDS011;29438;50.664;10.098;2023-02-28T04:31:55;7.93;;;2.63;;
43807;SDS011;29438;50.664;10.098;2023-02-28T04:34:22;6.13;;;2.58;;
43807;SDS011;29438;50.664;10.098;2023-02-28T04:36:49;6.10;;;2.75;;
43807;SDS011;29438;50.664;10.098;2023-02-28T04:39:15;6.35;;;2.67;;
43807;SDS011;29438;50.664;10.098;2023-02-28T04:41:43;5.95;;;2.78;;
43807;SDS011;29438;50.664;10.098;2023-02-28T04:44:09;5.65;;;2.65;;
43807;SDS011;29438;50.664;10.098;2023-02-28T04:46:34;7.78;;;2.60;;
43807;SDS011;29438;50.664;10.098;2023-02-28T04:49:00;6.15;;;2.75;;
43807;SDS011;29438;50.664;10.098;2023-02-28T04:51:25;4.90;;;2.22;;
43807;SDS011;29438;50.664;10.098;2023-02-28T04:53:51;5.30;;;2.45;;
43807;SDS011;29438;50.664;10.098;2023-02-28T04:56:17;4.72;;;2.30;;
43807;SDS011;29438;50.664;10.098;2023-02-28T04:58:43;6.60;;;2.83;;
43807;SDS011;29438;50.664;10.098;2023-02-28T05:03:45;8.18;;;3.00;;
43807;SDS011;29438;50.664;10.098;2023-02-28T05:06:11;6.50;;;2.80;;
43807;SDS011;29438;50.664;10.098;2023-02-28T05:08:38;7.60;;;2.65;;
43807;SDS011;29438;50.664;10.098;2023-02-28T05:11:05;7.45;;;2.55;;
43807;SDS011;29438;50.664;10.098;2023-02-28T05:13:33;6.55;;;2.42;;
43807;SDS011;29438;50.664;10.098;2023-02-28T05:15:59;11.98;;;3.80;;
43807;SDS011;29438;50.664;10.098;2023-02-28T05:18:25;6.03;;;2.63;;
43807;SDS011;29438;50.664;10.098;2023-02-28T05:20:50;8.20;;;2.85;;
43807;SDS011;29438;50.664;10.098;2023-02-28T05:23:16;7.65;;;3.30;;
43807;SDS011;29438;50.664;10.098;2023-02-28T05:25:44;8.45;;;3.00;;
43807;SDS011;29438;50.664;10.098;2023-02-28T05:28:10;9.10;;;2.97;;
43807;SDS011;29438;50.664;10.098;2023-02-28T05:30:35;9.73;;;3.95;;
43807;SDS011;29438;50.664;10.098;2023-02-28T05:33:01;8.20;;;3.25;;
43807;SDS011;29438;50.664;10.098;2023-02-28T05:35:26;8.45;;;3.72;;
43807;SDS011;29438;50.664;10.098;2023-02-28T05:37:52;10.73;;;4.38;;
43807;SDS011;29438;50.664;10.098;2023-02-28T05:40:17;6.45;;;2.45;;
43807;SDS011;29438;50.664;10.098;2023-02-28T05:42:45;6.85;;;3.00;;
43807;SDS011;29438;50.664;10.098;2023-02-28T05:45:10;6.13;;;3.03;;
43807;SDS011;29438;50.664;10.098;2023-02-28T05:47:36;11.43;;;3.75;;
43807;SDS011;29438;50.664;10.098;2023-02-28T05:50:02;9.63;;;3.90;;
43807;SDS011;29438;50.664;10.098;2023-02-28T05:52:28;8.05;;;3.72;;
43807;SDS011;29438;50.664;10.098;2023-02-28T05:54:55;9.02;;;3.75;;
43807;SDS011;29438;50.664;10.098;2023-02-28T05:57:20;7.18;;;2.95;;
43807;SDS011;29438;50.664;10.098;2023-02-28T05:59:46;7.43;;;3.35;;
43807;SDS011;29438;50.664;10.098;2023-02-28T06:02:12;8.02;;;3.40;;
43807;SDS011;29438;50.664;10.098;2023-02-28T06:04:39;8.88;;;3.65;;
43807;SDS011;29438;50.664;10.098;2023-02-28T06:07:05;9.30;;;3.88;;
43807;SDS011;29438;50.664;10.098;2023-02-28T06:09:32;9.93;;;3.80;;
43807;SDS011;29438;50.664;10.098;2023-02-28T06:12:02;6.82;;;3.67;;
43807;SDS011;29438;50.664;10.098;2023-02-28T06:14:30;12.13;;;4.22;;
43807;SDS011;29438;50.664;10.098;2023-02-28T06:16:57;8.65;;;3.75;;
43807;SDS011;29438;50.664;10.098;2023-02-28T06:19:23;12.02;;;3.80;;
43807;SDS011;29438;50.664;10.098;2023-02-28T06:21:53;7.78;;;3.50;;
43807;SDS011;29438;50.664;10.098;2023-02-28T06:24:19;13.40;;;4.15;;
43807;SDS011;29438;50.664;10.098;2023-02-28T06:26:45;10.18;;;4.55;;
43807;SDS011;29438;50.664;10.098;2023-02-28T06:29:11;9.90;;;4.13;;
43807;SDS011;29438;50.664;10.098;2023-02-28T06:31:37;11.68;;;4.57;;
43807;SDS011;29438;50.664;10.098;2023-02-28T06:34:03;14.38;;;4.88;;
43807;SDS011;29438;50.664;10.098;2023-02-28T06:36:30;10.93;;;4.90;;
43807;SDS011;29438;50.664;10.098;2023-02-28T06:38:55;13.63;;;4.68;;
43807;SDS011;29438;50.664;10.098;2023-02-28T06:41:24;14.05;;;4.65;;
43807;SDS011;29438;50.664;10.098;2023-02-28T06:43:50;11.95;;;4.60;;
43807;SDS011;29438;50.664;10.098;2023-02-28T06:46:16;13.98;;;4.47;;
43807;SDS011;29438;50.664;10.098;2023-02-28T06:48:43;12.20;;;4.82;;
43807;SDS011;29438;50.664;10.098;2023-02-28T06:51:10;10.43;;;3.92;;
43807;SDS011;29438;50.664;10.098;2023-02-28T06:53:39;10.65;;;4.35;;
43807;SDS011;29438;50.664;10.098;2023-02-28T06:56:08;10.10;;;4.53;;
43807;SDS011;29438;50.664;10.098;2023-02-28T06:58:36;9.07;;;3.65;;
43807;SDS011;29438;50.664;10.098;2023-02-28T07:01:02;7.47;;;3.45;;
43807;SDS011;29438;50.664;10.098;2023-02-28T07:03:28;9.70;;;3.78;;
43807;SDS011;29438;50.664;10.098;2023-02-28T07:05:54;9.00;;;3.97;;
43807;SDS011;29438;50.664;10.098;2023-02-28T07:08:21;10.10;;;3.55;;
43807;SDS011;29438;50.664;10.098;2023-02-28T07:10:47;9.32;;;2.97;;
43807;SDS011;29438;50.664;10.098;2023-02-28T07:13:17;8.32;;;3.55;;
43807;SDS011;29438;50.664;10.098;2023-02-28T07:15:42;9.57;;;3.17;;
43807;SDS011;29438;50.664;10.098;2023-02-28T07:18:08;8.68;;;3.20;;
43807;SDS011;29438;50.664;10.098;2023-02-28T07:20:33;7.60;;;3.55;;
43807;SDS011;29438;50.664;10.098;2023-02-28T07:22:59;8.13;;;3.20;;
43807;SDS011;29438;50.664;10.098;2023-02-28T07:25:25;7.40;;;3.33;;
43807;SDS011;29438;50.664;10.098;2023-02-28T07:27:52;6.53;;;2.78;;
43807;SDS011;29438;50.664;10.098;2023-02-28T07:30:18;9.25;;;3.47;;
43807;SDS011;29438;50.664;10.098;2023-02-28T07:32:44;5.50;;;2.50;;
43807;SDS011;29438;50.664;10.098;2023-02-28T07:35:10;8.52;;;3.67;;
43807;SDS011;29438;50.664;10.098;2023-02-28T07:37:35;8.32;;;3.08;;
43807;SDS011;29438;50.664;10.098;2023-02-28T07:40:05;8.52;;;3.15;;
43807;SDS011;29438;50.664;10.098;2023-02-28T07:42:43;6.03;;;2.95;;
43807;SDS011;29438;50.664;10.098;2023-02-28T07:45:09;9.10;;;2.70;;
43807;SDS011;29438;50.664;10.098;2023-02-28T07:47:36;7.30;;;3.38;;
43807;SDS011;29438;50.664;10.098;2023-02-28T07:50:04;7.85;;;3.08;;
43807;SDS011;29438;50.664;10.098;2023-02-28T07:52:31;8.35;;;3.20;;
43807;SDS011;29438;50.664;10.098;2023-02-28T07:54:57;5.80;;;2.80;;
43807;SDS011;29438;50.664;10.098;2023-02-28T07:57:22;7.13;;;3.50;;
43807;SDS011;29438;50.664;10.098;2023-02-28T07:59:48;6.63;;;3.20;;
43807;SDS011;29438;50.664;10.098;2023-02-28T08:02:14;9.43;;;4.22;;
43807;SDS011;29438;50.664;10.098;2023-02-28T08:04:41;8.35;;;3.65;;
43807;SDS011;29438;50.664;10.098;2023-02-28T08:07:07;7.47;;;3.45;;
43807;SDS011;29438;50.664;10.098;2023-02-28T08:09:32;8.57;;;3.70;;
43807;SDS011;29438;50.664;10.098;2023-02-28T08:11:59;8.05;;;3.42;;
43807;SDS011;29438;50.664;10.098;2023-02-28T08:14:24;8.15;;;4.00;;
43807;SDS011;29438;50.664;10.098;2023-02-28T08:16:50;7.82;;;3.40;;
43807;SDS011;29438;50.664;10.098;2023-02-28T08:19:15;7.20;;;3.17;;
43807;SDS011;29438;50.664;10.098;2023-02-28T08:21:41;7.00;;;3.42;;
43807;SDS011;29438;50.664;10.098;2023-02-28T08:24:06;7.90;;;3.65;;
43807;SDS011;29438;50.664;10.098;2023-02-28T08:26:32;6.95;;;3.50;;
43807;SDS011;29438;50.664;10.098;2023-02-28T08:28:58;7.30;;;3.22;;
43807;SDS011;29438;50.664;10.098;2023-02-28T08:31:23;6.47;;;3.25;;
43807;SDS011;29438;50.664;10.098;2023-02-28T08:33:49;6.20;;;3.00;;
43807;SDS011;29438;50.664;10.098;2023-02-28T08:36:16;5.63;;;2.90;;
43807;SDS011;29438;50.664;10.098;2023-02-28T08:38:42;7.00;;;2.65;;
43807;SDS011;29438;50.664;10.098;2023-02-28T08:41:09;7.45;;;3.22;;
43807;SDS011;29438;50.664;10.098;2023-02-28T08:43:36;6.95;;;2.97;;
43807;SDS011;29438;50.664;10.098;2023-02-28T08:46:02;5.93;;;2.70;;
43807;SDS011;29438;50.664;10.098;2023-02-28T08:48:28;4.90;;;2.50;;
43807;SDS011;29438;50.664;10.098;2023-02-28T08:50:59;4.72;;;2.30;;
43807;SDS011;29438;50.664;10.098;2023-02-28T08:53:26;7.10;;;3.15;;
43807;SDS011;29438;50.664;10.098;2023-02-28T08:58:47;5.82;;;2.80;;
43807;SDS011;29438;50.664;10.098;2023-02-28T09:01:14;6.28;;;2.55;;
43807;SDS011;29438;50.664;10.098;2023-02-28T09:03:42;6.28;;;2.85;;
43807;SDS011;29438;50.664;10.098;2023-02-28T09:06:09;5.45;;;2.60;;
43807;SDS011;29438;50.664;10.098;2023-02-28T09:08:36;6.75;;;2.50;;
43807;SDS011;29438;50.664;10.098;2023-02-28T09:11:01;4.93;;;1.98;;
43807;SDS011;29438;50.664;10.098;2023-02-28T09:13:28;4.85;;;2.33;;
43807;SDS011;29438;50.664;10.098;2023-02-28T09:15:55;4.78;;;2.47;;
43807;SDS011;29438;50.664;10.098;2023-02-28T09:18:23;5.35;;;2.85;;
43807;SDS011;29438;50.664;10.098;2023-02-28T09:20:49;5.30;;;2.33;;
43807;SDS011;29438;50.664;10.098;2023-02-28T09:23:15;4.38;;;2.08;;
43807;SDS011;29438;50.664;10.098;2023-02-28T09:25:45;4.60;;;2.58;;
43807;SDS011;29438;50.664;10.098;2023-02-28T09:28:12;3.78;;;1.55;;
43807;SDS011;29438;50.664;10.098;2023-02-28T09:30:39;4.22;;;2.08;;
43807;SDS011;29438;50.664;10.098;2023-02-28T09:33:04;4.38;;;1.73;;
43807;SDS011;29438;50.664;10.098;2023-02-28T09:35:30;7.65;;;2.20;;
43807;SDS011;29438;50.664;10.098;2023-02-28T09:37:56;3.85;;;1.90;;
43807;SDS011;29438;50.664;10.098;2023-02-28T09:40:23;6.45;;;2.33;;
43807;SDS011;29438;50.664;10.098;2023-02-28T09:42:54;5.95;;;2.38;;
43807;SDS011;29438;50.664;10.098;2023-02-28T09:47:58;4.72;;;2.00;;
43807;SDS011;29438;50.664;10.098;2023-02-28T09:50:30;5.97;;;2.50;;
43807;SDS011;29438;50.664;10.098;2023-02-28T09:53:21;6.13;;;1.80;;
43807;SDS011;29438;50.664;10.098;2023-02-28T09:56:14;4.25;;;2.00;;
43807;SDS011;29438;50.664;10.098;2023-02-28T09:58:55;3.85;;;1.67;;
43807;SDS011;29438;50.664;10.098;2023-02-28T10:04:00;3.42;;;1.58;;
43807;SDS011;29438;50.664;10.098;2023-02-28T10:06:42;6.22;;;1.90;;
43807;SDS011;29438;50.664;10.098;2023-02-28T10:09:15;4.55;;;1.70;;
43807;SDS011;29438;50.664;10.098;2023-02-28T10:11:50;5.25;;;2.00;;
43807;SDS011;29438;50.664;10.098;2023-02-28T10:16:46;5.97;;;1.70;;
43807;SDS011;29438;50.664;10.098;2023-02-28T10:19:34;5.97;;;2.00;;
43807;SDS011;29438;50.664;10.098;2023-02-28T10:22:29;7.60;;;2.20;;
43807;SDS011;29438;50.664;10.098;2023-02-28T10:25:00;2.65;;;1.23;;
43807;SDS011;29438;50.664;10.098;2023-02-28T10:27:30;4.85;;;1.67;;
43807;SDS011;29438;50.664;10.098;2023-02-28T10:29:57;5.05;;;2.20;;
43807;SDS011;29438;50.664;10.098;2023-02-28T10:32:26;5.15;;;2.17;;
43807;SDS011;29438;50.664;10.098;2023-02-28T10:34:59;6.82;;;3.40;;
43807;SDS011;29438;50.664;10.098;2023-02-28T10:37:31;3.60;;;1.73;;
43807;SDS011;29438;50.664;10.098;2023-02-28T10:40:03;4.55;;;2.05;;
43807;SDS011;29438;50.664;10.098;2023-02-28T10:42:31;4.47;;;1.88;;
43807;SDS011;29438;50.664;10.098;2023-02-28T10:47:48;6.18;;;2.28;;
43807;SDS011;29438;50.664;10.098;2023-02-28T10:51:02;4.88;;;2.00;;
43807;SDS011;29438;50.664;10.098;2023-02-28T10:58:26;4.65;;;2.00;;
43807;SDS011;29438;50.664;10.098;2023-02-28T11:00:55;4.15;;;1.63;;
43807;SDS011;29438;50.664;10.098;2023-02-28T11:03:25;5.95;;;2.40;;
43807;SDS011;29438;50.664;10.098;2023-02-28T11:06:07;4.55;;;1.95;;
43807;SDS011;29438;50.664;10.098;2023-02-28T11:08:59;5.97;;;2.20;;
43807;SDS011;29438;50.664;10.098;2023-02-28T11:11:26;5.18;;;2.13;;
43807;SDS011;29438;50.664;10.098;2023-02-28T11:13:57;7.15;;;2.20;;
43807;SDS011;29438;50.664;10.098;2023-02-28T11:16:32;4.40;;;1.90;;
43807;SDS011;29438;50.664;10.098;2023-02-28T11:19:00;4.10;;;1.95;;
43807;SDS011;29438;50.664;10.098;2023-02-28T11:21:27;6.43;;;2.28;;
43807;SDS011;29438;50.664;10.098;2023-02-28T11:24:04;4.55;;;2.20;;
43807;SDS011;29438;50.664;10.098;2023-02-28T11:26:37;5.32;;;2.03;;
43807;SDS011;29438;50.664;10.098;2023-02-28T11:29:17;8.60;;;2.40;;
43807;SDS011;29438;50.664;10.098;2023-02-28T11:37:01;4.00;;;1.90;;
43807;SDS011;29438;50.664;10.098;2023-02-28T11:39:30;4.53;;;2.30;;
43807;SDS011;29438;50.664;10.098;2023-02-28T11:50:16;5.93;;;2.72;;
43807;SDS011;29438;50.664;10.098;2023-02-28T11:52:53;5.20;;;1.85;;
43807;SDS011;29438;50.664;10.098;2023-02-28T11:55:26;4.32;;;2.30;;
43807;SDS011;29438;50.664;10.098;2023-02-28T12:06:33;6.15;;;2.50;;
43807;SDS011;29438;50.664;10.098;2023-02-28T12:09:20;3.97;;;1.25;;
43807;SDS011;29438;50.664;10.098;2023-02-28T12:17:19;3.53;;;1.65;;
43807;SDS011;29438;50.664;10.098;2023-02-28T12:25:37;4.40;;;1.98;;
43807;SDS011;29438;50.664;10.098;2023-02-28T12:28:14;5.13;;;2.10;;
43807;SDS011;29438;50.664;10.098;2023-02-28T12:30:46;4.30;;;1.95;;
43807;SDS011;29438;50.664;10.098;2023-02-28T12:33:18;3.67;;;1.60;;
43807;SDS011;29438;50.664;10.098;2023-02-28T12:35:56;5.13;;;2.20;;
43807;SDS011;29438;50.664;10.098;2023-02-28T12:38:31;5.13;;;2.30;;
43807;SDS011;29438;50.664;10.098;2023-02-28T12:41:03;4.55;;;1.90;;
43807;SDS011;29438;50.664;10.098;2023-02-28T12:43:46;5.28;;;2.40;;
43807;SDS011;29438;50.664;10.098;2023-02-28T12:46:17;4.45;;;1.90;;
43807;SDS011;29438;50.664;10.098;2023-02-28T12:48:52;6.65;;;2.75;;
43807;SDS011;29438;50.664;10.098;2023-02-28T12:59:14;6.85;;;2.88;;
43807;SDS011;29438;50.664;10.098;2023-02-28T13:04:40;6.80;;;2.75;;
43807;SDS011;29438;50.664;10.098;2023-02-28T13:09:59;9.00;;;4.10;;
43807;SDS011;29438;50.664;10.098;2023-02-28T13:12:28;6.18;;;2.95;;
43807;SDS011;29438;50.664;10.098;2023-02-28T13:15:02;6.72;;;3.28;;
43807;SDS011;29438;50.664;10.098;2023-02-28T13:17:31;13.50;;;6.50;;
43807;SDS011;29438;50.664;10.098;2023-02-28T13:19:58;6.63;;;3.35;;
43807;SDS011;29438;50.664;10.098;2023-02-28T13:24:51;6.88;;;2.80;;
43807;SDS011;29438;50.664;10.098;2023-02-28T13:27:35;7.32;;;3.03;;
43807;SDS011;29438;50.664;10.098;2023-02-28T13:47:21;6.38;;;2.60;;
43807;SDS011;29438;50.664;10.098;2023-02-28T13:52:30;3.70;;;2.05;;
43807;SDS011;29438;50.664;10.098;2023-02-28T13:57:42;7.80;;;2.90;;
43807;SDS011;29438;50.664;10.098;2023-02-28T14:00:54;7.25;;;3.15;;
43807;SDS011;29438;50.664;10.098;2023-02-28T14:08:58;6.93;;;2.75;;
43807;SDS011;29438;50.664;10.098;2023-02-28T14:11:38;7.18;;;2.63;;
43807;SDS011;29438;50.664;10.098;2023-02-28T14:14:06;7.65;;;3.03;;
43807;SDS011;29438;50.664;10.098;2023-02-28T14:16:46;6.85;;;2.70;;
43807;SDS011;29438;50.664;10.098;2023-02-28T14:19:20;7.05;;;3.03;;
43807;SDS011;29438;50.664;10.098;2023-02-28T14:22:00;8.05;;;3.05;;
43807;SDS011;29438;50.664;10.098;2023-02-28T14:24:45;6.30;;;3.13;;
43807;SDS011;29438;50.664;10.098;2023-02-28T14:30:15;8.88;;;3.40;;
43807;SDS011;29438;50.664;10.098;2023-02-28T14:38:23;7.80;;;2.80;;
43807;SDS011;29438;50.664;10.098;2023-02-28T14:40:53;8.25;;;3.33;;
43807;SDS011;29438;50.664;10.098;2023-02-28T14:43:22;7.38;;;2.90;;
43807;SDS011;29438;50.664;10.098;2023-02-28T14:45:51;7.85;;;3.45;;
43807;SDS011;29438;50.664;10.098;2023-02-28T14:48:19;8.50;;;3.33;;
43807;SDS011;29438;50.664;10.098;2023-02-28T14:50:51;7.90;;;3.75;;
43807;SDS011;29438;50.664;10.098;2023-02-28T14:53:19;6.25;;;2.80;;
43807;SDS011;29438;50.664;10.098;2023-02-28T14:55:47;7.70;;;3.20;;
43807;SDS011;29438;50.664;10.098;2023-02-28T14:58:24;7.65;;;4.07;;
43807;SDS011;29438;50.664;10.098;2023-02-28T15:00:56;6.22;;;3.03;;
43807;SDS011;29438;50.664;10.098;2023-02-28T15:05:54;6.82;;;3.50;;
43807;SDS011;29438;50.664;10.098;2023-02-28T15:08:24;30.90;;;10.80;;
43807;SDS011;29438;50.664;10.098;2023-02-28T15:10:55;6.25;;;2.85;;
43807;SDS011;29438;50.664;10.098;2023-02-28T15:13:23;8.13;;;3.53;;
43807;SDS011;29438;50.664;10.098;2023-02-28T15:16:00;12.15;;;5.70;;
43807;SDS011;29438;50.664;10.098;2023-02-28T15:18:35;10.38;;;4.05;;
43807;SDS011;29438;50.664;10.098;2023-02-28T15:21:13;8.88;;;3.72;;
43807;SDS011;29438;50.664;10.098;2023-02-28T15:23:56;11.13;;;4.15;;
43807;SDS011;29438;50.664;10.098;2023-02-28T15:26:30;8.73;;;3.67;;
43807;SDS011;29438;50.664;10.098;2023-02-28T15:29:06;11.50;;;4.20;;
43807;SDS011;29438;50.664;10.098;2023-02-28T15:31:46;12.00;;;4.28;;
43807;SDS011;29438;50.664;10.098;2023-02-28T15:36:52;9.20;;;4.10;;
43807;SDS011;29438;50.664;10.098;2023-02-28T15:39:22;7.35;;;2.80;;
43807;SDS011;29438;50.664;10.098;2023-02-28T15:41:52;5.07;;;2.50;;
43807;SDS011;29438;50.664;10.098;2023-02-28T15:44:34;8.63;;;3.88;;
43807;SDS011;29438;50.664;10.098;2023-02-28T15:47:07;8.65;;;4.03;;
43807;SDS011;29438;50.664;10.098;2023-02-28T15:49:46;7.65;;;3.47;;
43807;SDS011;29438;50.664;10.098;2023-02-28T15:52:19;7.28;;;3.50;;
43807;SDS011;29438;50.664;10.098;2023-02-28T15:54:47;8.38;;;3.13;;
43807;SDS011;29438;50.664;10.098;2023-02-28T15:57:15;8.57;;;3.35;;
43807;SDS011;29438;50.664;10.098;2023-02-28T15:59:49;7.07;;;3.15;;
43807;SDS011;29438;50.664;10.098;2023-02-28T16:02:21;7.90;;;3.13;;
43807;SDS011;29438;50.664;10.098;2023-02-28T16:07:38;7.35;;;3.45;;
43807;SDS011;29438;50.664;10.098;2023-02-28T16:10:06;8.68;;;3.35;;
43807;SDS011;29438;50.664;10.098;2023-02-28T16:12:36;7.13;;;3.08;;
43807;SDS011;29438;50.664;10.098;2023-02-28T16:15:06;9.25;;;3.58;;
43807;SDS011;29438;50.664;10.098;2023-02-28T16:17:43;7.22;;;3.58;;
43807;SDS011;29438;50.664;10.098;2023-02-28T16:20:16;7.78;;;3.58;;
43807;SDS011;29438;50.664;10.098;2023-02-28T16:22:47;8.18;;;4.00;;
43807;SDS011;29438;50.664;10.098;2023-02-28T16:25:13;7.10;;;2.78;;
43807;SDS011;29438;50.664;10.098;2023-02-28T16:27:44;10.30;;;4.57;;
43807;SDS011;29438;50.664;10.098;2023-02-28T16:30:23;9.68;;;4.05;;
43807;SDS011;29438;50.664;10.098;2023-02-28T16:32:51;7.28;;;3.30;;
43807;SDS011;29438;50.664;10.098;2023-02-28T16:35:18;11.23;;;4.22;;
43807;SDS011;29438;50.664;10.098;2023-02-28T16:37:44;10.77;;;3.92;;
43807;SDS011;29438;50.664;10.098;2023-02-28T16:40:17;8.55;;;3.95;;
43807;SDS011;29438;50.664;10.098;2023-02-28T16:42:45;9.20;;;4.10;;
43807;SDS011;29438;50.664;10.098;2023-02-28T16:45:31;7.65;;;2.83;;
43807;SDS011;29438;50.664;10.098;2023-02-28T16:47:56;10.38;;;4.10;;
43807;SDS011;29438;50.664;10.098;2023-02-28T16:50:23;8.60;;;3.85;;
43807;SDS011;29438;50.664;10.098;2023-02-28T16:52:51;10.30;;;4.45;;
43807;SDS011;29438;50.664;10.098;2023-02-28T16:55:17;13.07;;;5.78;;
43807;SDS011;29438;50.664;10.098;2023-02-28T16:57:43;12.23;;;5.65;;
43807;SDS011;29438;50.664;10.098;2023-02-28T17:00:37;9.20;;;3.78;;
43807;SDS011;29438;50.664;10.098;2023-02-28T17:03:02;14.80;;;5.47;;
43807;SDS011;29438;50.664;10.098;2023-02-28T17:05:29;11.43;;;4.07;;
43807;SDS011;29438;50.664;10.098;2023-02-28T17:08:01;14.75;;;6.20;;
43807;SDS011;29438;50.664;10.098;2023-02-28T17:10:28;11.25;;;4.75;;
43807;SDS011;29438;50.664;10.098;2023-02-28T17:12:54;12.50;;;4.97;;
43807;SDS011;29438;50.664;10.098;2023-02-28T17:15:19;10.23;;;3.65;;
43807;SDS011;29438;50.664;10.098;2023-02-28T17:17:45;12.68;;;5.70;;
43807;SDS011;29438;50.664;10.098;2023-02-28T17:20:13;12.57;;;4.72;;